createdAt,value
2018-10-15T00:00:09.193Z,73.55
2018-10-15T00:01:09.347Z,73.46
2018-10-15T00:02:09.487Z,73.46
2018-10-15T00:03:09.621Z,74.41
2018-10-15T00:04:09.756Z,73.94
2018-10-15T00:05:09.912Z,73.94
2018-10-15T00:06:10.050Z,74.13
2018-10-15T00:07:10.184Z,73.94
2018-10-15T00:08:10.321Z,74.04
2018-10-15T00:09:10.461Z,73.94
2018-10-15T00:10:10.593Z,74.41
2018-10-15T00:11:10.727Z,73.84
2018-10-15T00:12:10.892Z,74.13
2018-10-15T00:13:11.070Z,73.36
2018-10-15T00:14:11.205Z,73.46
2018-10-15T00:15:11.345Z,72.79
2018-10-15T00:16:11.518Z,73.08
2018-10-15T00:17:11.647Z,73.55
2018-10-15T00:18:11.784Z,73.27
2018-10-15T00:19:11.935Z,73.17
2018-10-15T00:20:12.066Z,73.94
2018-10-15T00:21:12.209Z,74.19
2018-10-15T00:22:12.349Z,74.19
2018-10-15T00:23:12.488Z,74.32
2018-10-15T00:24:12.623Z,74.38
2018-10-15T00:25:12.778Z,74.28
2018-10-15T00:26:12.909Z,74.57
2018-10-15T00:27:13.077Z,74.04
2018-10-15T00:28:13.219Z,74.19
2018-10-15T00:29:13.349Z,74.28
2018-10-15T00:30:13.506Z,74.13
2018-10-15T00:31:13.640Z,74.09
2018-10-15T00:32:13.776Z,73.99
2018-10-15T00:33:13.929Z,74.48
2018-10-15T00:34:14.066Z,74.19
2018-10-15T00:35:14.196Z,74.09
2018-10-15T00:36:14.340Z,74.28
2018-10-15T00:37:14.480Z,73.99
2018-10-15T00:38:14.613Z,74.09
2018-10-15T00:39:14.757Z,74.19
2018-10-15T00:40:14.885Z,74.09
2018-10-15T00:41:15.052Z,73.43
2018-10-15T00:42:15.191Z,73.33
2018-10-15T00:43:15.323Z,72.75
2018-10-15T00:44:15.462Z,73.43
2018-10-15T00:45:15.635Z,73.33
2018-10-15T00:46:15.768Z,73.14
2018-10-15T00:47:15.904Z,73.71
2018-10-15T00:48:16.041Z,73.43
2018-10-15T00:49:16.229Z,74.09
2018-10-15T00:50:16.359Z,73.80
2018-10-15T00:51:16.503Z,74.09
2018-10-15T00:52:16.626Z,73.99
2018-10-15T00:53:16.785Z,73.71
2018-10-15T00:54:16.921Z,73.43
2018-10-15T00:55:17.053Z,73.43
2018-10-15T00:56:17.191Z,73.33
2018-10-15T00:57:17.327Z,73.52
2018-10-15T00:58:17.463Z,73.80
2018-10-15T00:59:17.595Z,74.19
2018-10-15T01:00:17.739Z,73.80
2018-10-15T01:01:17.873Z,74.19
2018-10-15T01:02:18.005Z,73.99
2018-10-15T01:03:18.144Z,73.52
2018-10-15T01:04:18.272Z,73.90
2018-10-15T01:05:18.403Z,73.14
2018-10-15T01:06:18.540Z,73.04
2018-10-15T01:07:18.677Z,74.09
2018-10-15T01:08:18.811Z,74.28
2018-10-15T01:09:18.957Z,73.90
2018-10-15T01:10:19.090Z,73.99
2018-10-15T01:11:19.230Z,73.99
2018-10-15T01:12:19.379Z,74.19
2018-10-15T01:13:19.541Z,74.38
2018-10-15T01:14:19.674Z,74.38
2018-10-15T01:15:19.806Z,74.28
2018-10-15T01:16:19.940Z,74.66
2018-10-15T01:17:20.080Z,73.90
2018-10-15T01:18:20.212Z,74.19
2018-10-15T01:19:20.413Z,74.09
2018-10-15T01:20:20.487Z,74.09
2018-10-15T01:21:20.623Z,74.15
2018-10-15T01:22:20.768Z,74.28
2018-10-15T01:23:20.905Z,74.48
2018-10-15T01:24:21.048Z,74.05
2018-10-15T01:25:21.172Z,73.77
2018-10-15T01:26:21.312Z,73.99
2018-10-15T01:27:21.459Z,74.05
2018-10-15T01:28:21.603Z,74.15
2018-10-15T01:29:21.737Z,74.09
2018-10-15T01:30:21.877Z,74.66
2018-10-15T01:31:22.009Z,74.85
2018-10-15T01:32:22.152Z,74.95
2018-10-15T01:33:22.288Z,74.95
2018-10-15T01:34:22.427Z,74.91
2018-10-15T01:35:22.565Z,75.10
2018-10-15T01:36:22.691Z,74.82
2018-10-15T01:37:22.830Z,74.73
2018-10-15T01:38:22.972Z,74.63
2018-10-15T01:39:23.108Z,74.76
2018-10-15T01:40:23.246Z,74.28
2018-10-15T01:41:23.391Z,74.85
2018-10-15T01:42:23.531Z,74.28
2018-10-15T01:43:24.189Z,74.34
2018-10-15T01:45:56.121Z,74.82
2018-10-15T01:46:56.257Z,74.73
2018-10-15T01:47:56.391Z,74.73
2018-10-15T01:48:56.531Z,74.24
2018-10-15T01:49:56.669Z,74.24
2018-10-15T01:50:56.922Z,74.44
2018-10-15T01:51:56.941Z,74.44
2018-10-15T01:52:57.079Z,74.15
2018-10-15T01:53:57.217Z,74.44
2018-10-15T01:54:57.353Z,74.15
2018-10-15T01:55:57.490Z,74.24
2018-10-15T01:56:57.624Z,74.15
2018-10-15T01:57:57.762Z,74.44
2018-10-15T01:58:57.894Z,74.63
2018-10-15T01:59:58.039Z,74.82
2018-10-15T02:00:58.168Z,74.53
2018-10-15T02:01:58.307Z,74.53
2018-10-15T02:02:58.439Z,74.63
2018-10-15T02:03:58.578Z,74.82
2018-10-15T02:04:58.710Z,74.91
2018-10-15T02:05:58.844Z,75.30
2018-10-15T02:06:58.983Z,75.39
2018-10-15T02:07:59.120Z,75.39
2018-10-15T02:08:59.258Z,75.01
2018-10-15T02:09:59.393Z,75.20
2018-10-15T02:10:59.547Z,75.20
2018-10-15T02:11:59.682Z,75.20
2018-10-15T02:12:59.817Z,75.10
2018-10-15T02:13:59.955Z,74.44
2018-10-15T02:15:00.098Z,74.44
2018-10-15T02:16:00.227Z,74.73
2018-10-15T02:17:00.362Z,74.24
2018-10-15T02:18:00.493Z,74.44
2018-10-15T02:19:00.626Z,74.05
2018-10-15T02:20:00.765Z,74.53
2018-10-15T02:21:00.898Z,74.34
2018-10-15T02:22:01.037Z,74.34
2018-10-15T02:23:01.212Z,74.24
2018-10-15T02:24:01.244Z,74.44
2018-10-15T02:25:01.383Z,74.44
2018-10-15T02:26:01.511Z,74.34
2018-10-15T02:27:01.659Z,74.15
2018-10-15T02:28:01.794Z,74.15
2018-10-15T02:29:01.934Z,74.02
2018-10-15T02:30:02.070Z,73.73
2018-10-15T02:31:02.201Z,73.92
2018-10-15T02:32:02.338Z,74.21
2018-10-15T02:33:02.474Z,74.30
2018-10-15T02:34:02.610Z,74.40
2018-10-15T02:35:02.747Z,74.15
2018-10-15T02:36:02.876Z,74.40
2018-10-15T02:37:03.045Z,74.40
2018-10-15T02:38:03.185Z,74.40
2018-10-15T02:39:03.325Z,74.21
2018-10-15T02:40:03.479Z,74.49
2018-10-15T02:41:03.617Z,74.69
2018-10-15T02:42:03.753Z,74.59
2018-10-15T02:43:03.896Z,75.26
2018-10-15T02:44:04.023Z,75.07
2018-10-15T02:45:04.900Z,75.26
2018-10-15T02:46:04.299Z,74.98
2018-10-15T02:47:04.432Z,75.26
2018-10-15T02:48:04.569Z,74.49
2018-10-15T02:49:05.383Z,74.40
2018-10-15T02:50:04.920Z,74.88
2018-10-15T02:51:05.059Z,74.88
2018-10-15T02:52:05.247Z,74.78
2018-10-15T02:53:05.383Z,74.59
2018-10-15T02:54:05.516Z,74.49
2018-10-15T02:55:05.653Z,74.88
2018-10-15T02:56:05.788Z,74.40
2018-10-15T02:57:05.920Z,74.88
2018-10-15T02:58:06.054Z,74.78
2018-10-15T02:59:06.188Z,74.49
2018-10-15T03:00:06.324Z,74.30
2018-10-15T03:01:06.462Z,74.49
2018-10-15T03:02:06.596Z,75.16
2018-10-15T03:03:06.728Z,74.78
2018-10-15T03:04:06.864Z,74.78
2018-10-15T03:05:06.996Z,75.07
2018-10-15T03:06:07.140Z,74.88
2018-10-15T03:07:07.281Z,75.26
2018-10-15T03:08:07.419Z,75.07
2018-10-15T03:09:07.562Z,75.07
2018-10-15T03:10:07.698Z,75.45
2018-10-15T03:11:07.834Z,75.54
2018-10-15T03:12:07.969Z,75.54
2018-10-15T03:13:08.106Z,75.35
2018-10-15T03:14:08.246Z,75.26
2018-10-15T03:15:08.377Z,74.88
2018-10-15T03:16:08.509Z,75.07
2018-10-15T03:17:08.645Z,75.26
2018-10-15T03:18:08.779Z,75.26
2018-10-15T03:19:08.920Z,75.16
2018-10-15T03:20:09.070Z,75.35
2018-10-15T03:21:09.187Z,75.16
2018-10-15T03:22:09.332Z,75.45
2018-10-15T03:23:09.458Z,75.35
2018-10-15T03:24:09.610Z,74.69
2018-10-15T03:25:09.746Z,74.78
2018-10-15T03:26:09.885Z,74.40
2018-10-15T03:27:10.019Z,74.78
2018-10-15T03:28:10.164Z,74.49
2018-10-15T03:29:10.298Z,74.78
2018-10-15T03:30:10.473Z,75.26
2018-10-15T03:31:10.565Z,75.26
2018-10-15T03:32:10.714Z,75.16
2018-10-15T03:33:11.386Z,75.16
2018-10-15T03:34:11.053Z,75.07
2018-10-15T03:35:11.194Z,75.13
2018-10-15T03:36:11.342Z,75.03
2018-10-15T03:37:11.475Z,74.93
2018-10-15T03:38:11.612Z,75.07
2018-10-15T03:39:11.747Z,75.13
2018-10-15T03:40:11.875Z,75.13
2018-10-15T03:41:12.010Z,75.32
2018-10-15T03:42:12.145Z,75.60
2018-10-15T03:43:12.277Z,75.51
2018-10-15T03:44:12.412Z,75.83
2018-10-15T03:45:12.552Z,75.79
2018-10-15T03:46:12.679Z,75.60
2018-10-15T03:47:12.831Z,75.54
2018-10-15T03:48:12.963Z,75.54
2018-10-15T03:49:13.097Z,75.32
2018-10-15T03:50:13.238Z,74.59
2018-10-15T03:51:13.385Z,74.37
2018-10-15T03:52:13.521Z,74.08
2018-10-15T03:53:13.659Z,74.08
2018-10-15T03:54:13.805Z,74.17
2018-10-15T03:55:13.928Z,74.17
2018-10-15T03:56:14.059Z,74.17
2018-10-15T03:57:14.232Z,74.46
2018-10-15T03:58:14.391Z,74.37
2018-10-15T03:59:14.519Z,74.17
2018-10-15T04:00:14.654Z,74.46
2018-10-15T04:01:14.798Z,74.37
2018-10-15T04:02:14.961Z,74.08
2018-10-15T04:03:15.076Z,73.88
2018-10-15T04:04:15.214Z,74.08
2018-10-15T04:05:15.346Z,74.27
2018-10-15T04:06:15.497Z,74.08
2018-10-15T04:07:15.655Z,74.08
2018-10-15T04:08:15.793Z,73.88
2018-10-15T04:09:15.928Z,74.17
2018-10-15T04:10:16.062Z,73.03
2018-10-15T04:11:16.199Z,72.93
2018-10-15T04:12:16.336Z,73.41
2018-10-15T04:13:16.537Z,73.69
2018-10-15T04:14:16.637Z,73.88
2018-10-15T04:15:16.763Z,74.08
2018-10-15T04:16:16.898Z,74.27
2018-10-15T04:17:17.051Z,73.98
2018-10-15T04:18:17.204Z,73.79
2018-10-15T04:19:17.335Z,74.37
2018-10-15T04:20:17.487Z,74.27
2018-10-15T04:21:17.614Z,74.55
2018-10-15T04:22:17.747Z,74.55
2018-10-15T04:23:17.879Z,74.93
2018-10-15T04:24:18.013Z,74.93
2018-10-15T04:25:18.151Z,75.13
2018-10-15T04:26:18.287Z,75.70
2018-10-15T04:27:18.424Z,75.42
2018-10-15T04:28:18.578Z,75.13
2018-10-15T04:29:18.706Z,75.13
2018-10-15T04:30:18.847Z,75.03
2018-10-15T04:31:18.980Z,75.03
2018-10-15T04:32:19.121Z,74.65
2018-10-15T04:33:19.252Z,75.42
2018-10-15T04:34:19.388Z,74.65
2018-10-15T04:35:19.521Z,74.80
2018-10-15T04:36:19.681Z,74.27
2018-10-15T04:37:19.812Z,74.32
2018-10-15T04:38:19.946Z,74.08
2018-10-15T04:39:20.078Z,74.32
2018-10-15T04:40:20.251Z,74.55
2018-10-15T04:41:20.385Z,74.32
2018-10-15T04:42:20.520Z,75.09
2018-10-15T04:43:20.656Z,75.09
2018-10-15T04:44:20.789Z,75.66
2018-10-15T04:45:20.926Z,75.85
2018-10-15T04:46:21.065Z,75.57
2018-10-15T04:47:21.200Z,75.57
2018-10-15T04:48:21.348Z,74.90
2018-10-15T04:49:21.576Z,75.09
2018-10-15T04:50:21.613Z,75.09
2018-10-15T04:51:21.749Z,74.71
2018-10-15T04:52:21.898Z,75.37
2018-10-15T04:53:22.035Z,74.99
2018-10-15T04:54:22.166Z,74.99
2018-10-15T04:55:22.354Z,74.99
2018-10-15T04:56:22.453Z,74.90
2018-10-15T04:57:22.582Z,75.09
2018-10-15T04:58:22.785Z,74.61
2018-10-15T04:59:22.795Z,74.61
2018-10-15T05:00:22.970Z,74.32
2018-10-15T05:01:23.074Z,75.09
2018-10-15T05:02:23.221Z,74.61
2018-10-15T05:03:23.360Z,74.61
2018-10-15T05:04:23.489Z,74.71
2018-10-15T05:05:23.627Z,74.90
2018-10-15T05:06:23.861Z,74.13
2018-10-15T05:07:23.921Z,74.32
2018-10-15T05:08:24.059Z,74.04
2018-10-15T05:09:24.203Z,74.32
2018-10-15T05:10:24.340Z,74.23
2018-10-15T05:11:24.475Z,75.18
2018-10-15T05:12:24.645Z,75.28
2018-10-15T05:13:24.739Z,75.76
2018-10-15T05:14:24.911Z,75.76
2018-10-15T05:15:25.035Z,76.23
2018-10-15T05:16:25.166Z,75.47
2018-10-15T05:17:25.303Z,76.04
2018-10-15T05:18:25.489Z,75.85
2018-10-15T05:19:25.613Z,75.85
2018-10-15T05:20:25.749Z,75.57
2018-10-15T05:21:26.053Z,75.85
2018-10-15T05:22:26.025Z,75.85
2018-10-15T05:23:26.145Z,76.04
2018-10-15T05:24:26.282Z,76.04
2018-10-15T05:25:26.420Z,76.52
2018-10-15T05:26:26.592Z,76.33
2018-10-15T05:27:26.710Z,76.42
2018-10-15T05:28:26.843Z,76.81
2018-10-15T05:29:27.024Z,76.52
2018-10-15T05:30:27.901Z,77.19
2018-10-15T05:31:27.784Z,77.19
2018-10-15T05:32:27.503Z,77.09
2018-10-15T05:33:27.496Z,76.71
2018-10-15T05:34:27.634Z,76.90
2018-10-15T05:35:27.786Z,76.71
2018-10-15T05:36:27.971Z,76.62
2018-10-15T05:37:28.065Z,76.23
2018-10-15T05:38:28.204Z,76.42
2018-10-15T05:39:28.355Z,75.28
2018-10-15T05:40:28.488Z,75.47
2018-10-15T05:41:28.624Z,75.28
2018-10-15T05:42:28.757Z,75.47
2018-10-15T05:43:28.927Z,75.47
2018-10-15T05:44:29.063Z,75.28
2018-10-15T05:45:29.195Z,75.81
2018-10-15T05:46:29.350Z,75.18
2018-10-15T05:47:29.469Z,75.76
2018-10-15T05:48:29.619Z,75.76
2018-10-15T05:49:29.757Z,75.28
2018-10-15T05:50:29.900Z,75.28
2018-10-15T05:51:30.034Z,75.57
2018-10-15T05:52:30.169Z,75.57
2018-10-15T05:53:30.297Z,76.23
2018-10-15T05:54:30.444Z,75.57
2018-10-15T05:55:30.569Z,75.85
2018-10-15T05:56:30.697Z,75.85
2018-10-15T05:57:30.861Z,75.66
2018-10-15T05:58:31.008Z,75.66
2018-10-15T05:59:31.173Z,75.85
2018-10-15T06:00:31.308Z,75.95
2018-10-15T06:01:31.495Z,75.66
2018-10-15T06:02:31.605Z,75.18
2018-10-15T06:03:31.741Z,75.18
2018-10-15T06:04:31.877Z,74.71
2018-10-15T06:05:32.018Z,74.80
2018-10-15T06:06:32.154Z,74.80
2018-10-15T06:07:32.287Z,74.80
2018-10-15T06:08:32.427Z,74.42
2018-10-15T06:09:32.591Z,74.42
2018-10-15T06:10:32.722Z,75.28
2018-10-15T06:11:32.919Z,75.09
2018-10-15T06:12:32.939Z,75.28
2018-10-15T06:13:33.143Z,74.90
2018-10-15T06:14:33.228Z,74.99
2018-10-15T06:15:33.363Z,74.99
2018-10-15T06:16:33.509Z,74.99
2018-10-15T06:17:33.644Z,74.90
2018-10-15T06:18:33.780Z,75.18
2018-10-15T06:19:33.939Z,75.28
2018-10-15T06:20:34.077Z,75.09
2018-10-15T06:21:34.200Z,74.90
2018-10-15T06:22:34.348Z,74.99
2018-10-15T06:23:34.494Z,75.47
2018-10-15T06:24:34.628Z,75.66
2018-10-15T06:25:34.786Z,75.76
2018-10-15T06:26:34.926Z,75.34
2018-10-15T06:27:35.054Z,75.72
2018-10-15T06:28:35.214Z,76.01
2018-10-15T06:29:35.336Z,76.33
2018-10-15T06:30:35.478Z,76.42
2018-10-15T06:31:35.621Z,76.42
2018-10-15T06:32:35.756Z,76.81
2018-10-15T06:33:35.952Z,76.81
2018-10-15T06:34:36.024Z,76.62
2018-10-15T06:35:36.214Z,76.33
2018-10-15T06:36:36.303Z,76.42
2018-10-15T06:37:36.444Z,75.85
2018-10-15T06:38:36.581Z,76.90
2018-10-15T06:39:36.714Z,76.81
2018-10-15T06:40:36.849Z,76.90
2018-10-15T06:41:36.986Z,77.00
2018-10-15T06:42:37.130Z,76.33
2018-10-15T06:43:37.390Z,75.95
2018-10-15T06:44:37.345Z,76.04
2018-10-15T06:45:37.505Z,76.04
2018-10-15T06:46:38.206Z,75.85
2018-10-15T06:47:37.742Z,75.57
2018-10-15T06:48:37.887Z,75.85
2018-10-15T06:49:38.013Z,76.04
2018-10-15T06:50:38.148Z,75.37
2018-10-15T06:51:38.296Z,75.66
2018-10-15T06:52:38.451Z,75.85
2018-10-15T06:53:38.609Z,76.04
2018-10-15T06:54:38.719Z,75.18
2018-10-15T06:55:38.862Z,75.95
2018-10-15T06:56:39.027Z,75.37
2018-10-15T06:57:39.147Z,76.04
2018-10-15T06:58:39.284Z,75.57
2018-10-15T06:59:39.420Z,76.04
2018-10-15T07:00:39.564Z,75.18
2018-10-15T07:01:39.691Z,75.57
2018-10-15T07:02:39.827Z,76.23
2018-10-15T07:03:39.981Z,76.48
2018-10-15T07:04:40.118Z,76.67
2018-10-15T07:05:40.256Z,76.71
2018-10-15T07:06:41.249Z,76.77
2018-10-15T07:07:40.599Z,77.19
2018-10-15T07:08:40.686Z,77.09
2018-10-15T07:09:40.824Z,77.00
2018-10-15T07:10:40.968Z,77.09
2018-10-15T07:11:41.154Z,77.09
2018-10-15T07:12:41.285Z,77.00
2018-10-15T07:13:41.492Z,77.19
2018-10-15T07:14:41.683Z,77.38
2018-10-15T07:15:41.720Z,77.19
2018-10-15T07:16:41.849Z,77.09
2018-10-15T07:17:41.993Z,77.28
2018-10-15T07:18:42.139Z,77.09
2018-10-15T07:19:42.277Z,77.09
2018-10-15T07:20:42.454Z,76.81
2018-10-15T07:21:42.541Z,77.09
2018-10-15T07:22:42.691Z,77.19
2018-10-15T07:23:42.817Z,77.23
2018-10-15T07:24:43.027Z,77.23
2018-10-15T07:25:43.046Z,77.13
2018-10-15T07:26:43.181Z,77.13
2018-10-15T07:27:43.363Z,77.23
2018-10-15T07:28:43.467Z,76.94
2018-10-15T07:29:43.602Z,77.13
2018-10-15T07:30:43.736Z,77.03
2018-10-15T07:31:43.904Z,77.51
2018-10-15T07:32:44.056Z,77.13
2018-10-15T07:33:44.261Z,77.13
2018-10-15T07:34:44.325Z,76.94
2018-10-15T07:35:44.502Z,77.13
2018-10-15T07:36:44.640Z,77.61
2018-10-15T07:37:44.776Z,77.89
2018-10-15T07:38:44.908Z,77.70
2018-10-15T07:39:45.137Z,78.18
2018-10-15T07:40:45.187Z,78.28
2018-10-15T07:41:45.319Z,78.28
2018-10-15T07:42:45.457Z,78.18
2018-10-15T07:43:45.595Z,78.18
2018-10-15T07:44:45.726Z,78.28
2018-10-15T07:45:45.862Z,78.56
2018-10-15T07:46:46.096Z,78.28
2018-10-15T07:47:46.196Z,79.04
2018-10-15T07:48:46.207Z,78.94
2018-10-15T07:49:46.344Z,79.04
2018-10-15T07:50:46.503Z,79.61
2018-10-15T07:51:46.637Z,79.33
2018-10-15T07:52:46.778Z,78.94
2018-10-15T07:53:46.984Z,78.99
2018-10-15T07:54:47.000Z,79.27
2018-10-15T07:55:47.132Z,79.17
2018-10-15T07:56:47.267Z,79.36
2018-10-15T07:57:47.408Z,78.89
2018-10-15T07:58:47.547Z,79.17
2018-10-15T07:59:47.685Z,78.99
2018-10-15T08:00:47.820Z,79.17
2018-10-15T08:01:47.957Z,79.27
2018-10-15T08:02:48.127Z,79.56
2018-10-15T08:03:48.359Z,79.17
2018-10-15T08:04:48.369Z,79.27
2018-10-15T08:05:48.511Z,79.85
2018-10-15T08:06:48.676Z,79.56
2018-10-15T08:07:48.795Z,79.85
2018-10-15T08:08:48.999Z,80.61
2018-10-15T08:09:49.066Z,81.09
2018-10-15T08:10:49.210Z,80.90
2018-10-15T08:11:49.333Z,80.41
2018-10-15T08:12:49.474Z,80.32
2018-10-15T08:13:49.612Z,80.28
2018-10-15T08:14:49.791Z,80.90
2018-10-15T08:15:49.881Z,80.90
2018-10-15T08:16:50.014Z,80.32
2018-10-15T08:17:50.157Z,80.51
2018-10-15T08:18:50.296Z,80.41
2018-10-15T08:19:50.440Z,80.41
2018-10-15T08:20:50.630Z,80.61
2018-10-15T08:21:50.708Z,80.41
2018-10-15T08:22:50.847Z,80.32
2018-10-15T08:23:50.980Z,80.22
2018-10-15T08:24:51.122Z,80.70
2018-10-15T08:25:51.257Z,80.17
2018-10-15T08:26:51.391Z,80.41
2018-10-15T08:27:51.585Z,80.80
2018-10-15T08:28:51.662Z,80.90
2018-10-15T08:29:51.798Z,81.66
2018-10-15T08:30:51.939Z,81.37
2018-10-15T08:31:52.075Z,82.04
2018-10-15T08:32:52.209Z,82.14
2018-10-15T08:33:52.347Z,81.66
2018-10-15T08:34:52.563Z,82.42
2018-10-15T08:35:52.620Z,82.71
2018-10-15T08:36:52.772Z,82.32
2018-10-15T08:37:52.904Z,82.71
2018-10-15T08:38:53.042Z,82.42
2018-10-15T08:39:53.181Z,81.95
2018-10-15T08:40:53.316Z,82.04
2018-10-15T08:41:53.539Z,81.60
2018-10-15T08:44:25.638Z,81.99
2018-10-15T08:45:25.776Z,81.89
2018-10-15T08:46:25.934Z,81.60
2018-10-15T08:47:26.065Z,81.13
2018-10-15T08:48:26.208Z,80.98
2018-10-15T08:49:26.346Z,80.79
2018-10-15T08:50:26.549Z,81.26
2018-10-15T08:51:26.626Z,81.26
2018-10-15T08:52:26.797Z,81.65
2018-10-15T08:53:26.892Z,80.88
2018-10-15T08:54:27.160Z,81.07
2018-10-15T08:55:27.202Z,81.55
2018-10-15T08:56:27.339Z,81.55
2018-10-15T08:57:27.516Z,81.07
2018-10-15T08:58:27.657Z,82.12
2018-10-15T08:59:27.807Z,81.84
2018-10-15T09:00:27.953Z,81.84
2018-10-15T09:01:28.161Z,81.74
2018-10-15T09:02:28.184Z,81.45
2018-10-15T09:03:28.322Z,81.36
2018-10-15T09:04:28.471Z,80.54
2018-10-15T09:05:28.608Z,80.25
2018-10-15T09:06:28.772Z,80.54
2018-10-15T09:07:28.939Z,80.63
2018-10-15T09:08:29.077Z,80.54
2018-10-15T09:09:29.328Z,80.63
2018-10-15T09:10:29.304Z,80.35
2018-10-15T09:11:29.444Z,80.44
2018-10-15T09:12:29.661Z,80.44
2018-10-15T09:13:29.717Z,80.63
2018-10-15T09:14:29.877Z,80.73
2018-10-15T09:15:29.988Z,80.29
2018-10-15T09:16:30.158Z,79.81
2018-10-15T09:17:30.289Z,80.38
2018-10-15T09:18:30.423Z,80.00
2018-10-15T09:19:30.566Z,78.95
2018-10-15T09:20:30.705Z,80.00
2018-10-15T09:21:30.884Z,79.43
2018-10-15T09:22:30.996Z,78.95
2018-10-15T09:23:31.156Z,78.28
2018-10-15T09:24:31.281Z,78.13
2018-10-15T09:25:31.417Z,77.80
2018-10-15T09:26:31.589Z,78.32
2018-10-15T09:27:31.821Z,78.32
2018-10-15T09:28:31.872Z,77.26
2018-10-15T09:29:32.005Z,77.17
2018-10-15T09:30:32.142Z,77.17
2018-10-15T09:31:32.341Z,77.26
2018-10-15T09:32:32.421Z,77.46
2018-10-15T09:33:32.605Z,77.17
2018-10-15T09:34:32.697Z,77.26
2018-10-15T09:35:32.863Z,76.89
2018-10-15T09:36:32.996Z,76.60
2018-10-15T09:37:33.129Z,76.06
2018-10-15T09:38:33.335Z,75.96
2018-10-15T09:39:33.407Z,75.77
2018-10-15T09:40:33.549Z,75.87
2018-10-15T09:41:33.765Z,75.96
2018-10-15T09:42:33.824Z,75.77
2018-10-15T09:43:33.964Z,75.20
2018-10-15T09:44:34.098Z,74.62
2018-10-15T09:45:34.247Z,74.33
2018-10-15T09:46:34.372Z,74.33
2018-10-15T09:47:34.506Z,74.24
2018-10-15T09:48:34.645Z,73.76
2018-10-15T09:49:34.784Z,72.99
2018-10-15T09:50:34.947Z,73.28
2018-10-15T09:51:35.059Z,74.62
2018-10-15T09:52:35.201Z,74.27
2018-10-15T09:53:35.337Z,73.80
2018-10-15T09:54:35.481Z,73.51
2018-10-15T09:55:35.617Z,72.84
2018-10-15T09:56:35.755Z,72.36
2018-10-15T09:57:35.900Z,71.88
2018-10-15T09:58:36.040Z,71.50
2018-10-15T09:59:36.181Z,71.72
2018-10-15T10:00:36.320Z,72.11
2018-10-15T10:01:36.485Z,72.49
2018-10-15T10:02:36.607Z,72.88
2018-10-15T10:03:36.742Z,73.26
2018-10-15T10:04:36.884Z,72.01
2018-10-15T10:05:37.054Z,72.20
2018-10-15T10:06:37.219Z,71.15
2018-10-15T10:07:37.408Z,70.51
2018-10-15T10:08:37.531Z,70.03
2018-10-15T10:09:37.665Z,70.61
2018-10-15T10:10:37.804Z,69.65
2018-10-15T10:11:37.942Z,69.93
2018-10-15T10:12:38.094Z,69.46
2018-10-15T10:13:38.230Z,69.56
2018-10-15T10:14:38.508Z,70.03
2018-10-15T10:15:38.510Z,70.07
2018-10-15T10:16:38.652Z,69.30
2018-10-15T10:17:38.925Z,69.30
2018-10-15T10:18:38.931Z,69.01
2018-10-15T10:19:39.070Z,69.78
2018-10-15T10:20:39.205Z,68.73
2018-10-15T10:21:39.341Z,68.53
2018-10-15T10:22:39.478Z,68.47
2018-10-15T10:23:39.628Z,67.32
2018-10-15T10:24:39.769Z,67.03
2018-10-15T10:25:39.914Z,67.13
2018-10-15T10:26:40.044Z,68.37
2018-10-15T10:27:40.179Z,68.66
2018-10-15T10:28:40.469Z,67.32
2018-10-15T10:29:40.483Z,67.13
2018-10-15T10:30:40.639Z,66.30
2018-10-15T10:31:40.739Z,66.87
2018-10-15T10:32:40.907Z,66.00
2018-10-15T10:33:41.170Z,65.05
2018-10-15T10:34:41.167Z,64.95
2018-10-15T10:35:41.356Z,65.14
2018-10-15T10:36:41.468Z,66.00
2018-10-15T10:37:41.640Z,65.72
2018-10-15T10:38:41.834Z,65.75
2018-10-15T10:39:41.991Z,64.31
2018-10-15T10:40:42.061Z,64.40
2018-10-15T10:41:42.332Z,65.46
2018-10-15T10:42:42.337Z,63.73
2018-10-15T10:43:42.486Z,62.68
2018-10-15T10:44:42.686Z,63.06
2018-10-15T10:45:42.834Z,62.68
2018-10-15T10:46:42.924Z,62.96
2018-10-15T10:47:43.068Z,63.15
2018-10-15T10:48:43.201Z,62.77
2018-10-15T10:49:43.348Z,62.10
2018-10-15T10:50:43.490Z,62.03
2018-10-15T10:51:43.626Z,61.65
2018-10-15T10:52:43.773Z,62.23
2018-10-15T10:53:43.938Z,62.80
2018-10-15T10:54:44.075Z,62.23
2018-10-15T10:55:44.216Z,62.35
2018-10-15T10:56:44.358Z,61.49
2018-10-15T10:57:44.508Z,61.77
2018-10-15T10:58:44.695Z,62.16
2018-10-15T10:59:44.779Z,62.26
2018-10-15T11:00:44.917Z,61.97
2018-10-15T11:01:45.063Z,61.77
2018-10-15T11:02:45.309Z,61.97
2018-10-15T11:03:45.351Z,62.06
2018-10-15T11:04:45.529Z,60.62
2018-10-15T11:05:45.710Z,60.62
2018-10-15T11:06:45.835Z,60.42
2018-10-15T11:07:45.990Z,61.58
2018-10-15T11:08:46.133Z,62.19
2018-10-15T11:09:46.280Z,61.42
2018-10-15T11:10:46.419Z,60.65
2018-10-15T11:11:46.558Z,60.94
2018-10-15T11:12:46.694Z,61.52
2018-10-15T11:13:46.839Z,61.45
2018-10-15T11:14:46.983Z,61.07
2018-10-15T11:15:47.126Z,60.87
2018-10-15T11:16:47.275Z,61.07
2018-10-15T11:17:48.003Z,61.07
2018-10-15T11:20:20.122Z,59.45
2018-10-15T11:21:20.265Z,59.55
2018-10-15T11:22:20.460Z,59.07
2018-10-15T11:23:20.545Z,58.69
2018-10-15T11:24:20.727Z,58.49
2018-10-15T11:25:20.827Z,58.42
2018-10-15T11:26:20.979Z,57.85
2018-10-15T11:27:21.113Z,56.79
2018-10-15T11:28:21.252Z,56.43
2018-10-15T11:29:21.396Z,55.85
2018-10-15T11:30:21.539Z,55.94
2018-10-15T11:31:21.683Z,55.76
2018-10-15T11:32:21.827Z,55.85
2018-10-15T11:33:21.971Z,55.30
2018-10-15T11:34:22.165Z,54.72
2018-10-15T11:35:22.259Z,54.33
2018-10-15T11:36:22.412Z,54.05
2018-10-15T11:37:22.553Z,54.14
2018-10-15T11:38:22.691Z,54.33
2018-10-15T11:39:22.831Z,54.33
2018-10-15T11:40:22.972Z,54.75
2018-10-15T11:41:23.110Z,54.27
2018-10-15T11:42:23.257Z,54.55
2018-10-15T11:43:23.572Z,54.17
2018-10-15T11:44:23.547Z,53.88
2018-10-15T11:45:23.691Z,53.81
2018-10-15T11:46:23.881Z,54.10
2018-10-15T11:47:23.985Z,52.67
2018-10-15T11:48:24.127Z,52.29
2018-10-15T11:49:24.288Z,51.81
2018-10-15T11:50:24.442Z,51.32
2018-10-15T11:51:24.615Z,50.96
2018-10-15T11:52:24.732Z,51.15
2018-10-15T11:53:24.915Z,51.28
2018-10-15T11:54:25.035Z,50.50
2018-10-15T11:55:25.168Z,49.82
2018-10-15T11:56:25.335Z,50.60
2018-10-15T11:57:25.484Z,50.52
2018-10-15T11:58:25.624Z,49.65
2018-10-15T11:59:25.875Z,48.79
2018-10-15T12:00:25.934Z,48.88
2018-10-15T12:01:26.086Z,47.74
2018-10-15T12:02:26.264Z,47.84
2018-10-15T12:03:26.386Z,47.94
2018-10-15T12:04:26.544Z,48.32
2018-10-15T12:05:26.698Z,47.38
2018-10-15T12:06:26.850Z,47.28
2018-10-15T12:07:27.001Z,47.19
2018-10-15T12:08:27.149Z,46.99
2018-10-15T12:09:27.304Z,46.33
2018-10-15T12:10:27.452Z,45.95
2018-10-15T12:11:27.612Z,46.43
2018-10-15T12:12:27.764Z,46.24
2018-10-15T12:13:27.914Z,46.55
2018-10-15T12:14:28.067Z,45.97
2018-10-15T12:15:28.224Z,45.78
2018-10-15T12:16:28.367Z,45.58
2018-10-15T12:17:28.514Z,46.16
2018-10-15T12:18:28.672Z,46.07
2018-10-15T12:19:28.824Z,46.09
2018-10-15T12:20:28.976Z,44.37
2018-10-15T12:21:29.128Z,44.27
2018-10-15T12:22:29.328Z,44.17
2018-10-15T12:23:29.433Z,44.38
2018-10-15T12:24:29.587Z,44.09
2018-10-15T12:25:29.747Z,43.05
2018-10-15T12:26:29.896Z,42.56
2018-10-15T12:27:30.058Z,41.90
2018-10-15T12:28:30.212Z,42.10
2018-10-15T12:29:30.357Z,42.00
2018-10-15T12:30:30.510Z,40.95
2018-10-15T12:31:30.662Z,40.66
2018-10-15T12:32:30.813Z,40.27
2018-10-15T12:33:30.965Z,40.19
2018-10-15T12:34:31.122Z,39.69
2018-10-15T12:35:31.272Z,39.80
2018-10-15T12:36:31.494Z,39.78
2018-10-15T12:37:31.520Z,40.95
2018-10-15T12:38:31.673Z,40.39
2018-10-15T12:39:31.822Z,39.90
2018-10-15T12:40:31.987Z,39.70
2018-10-15T12:41:32.143Z,39.90
2018-10-15T12:42:32.291Z,39.34
2018-10-15T12:43:32.452Z,40.01
2018-10-15T12:44:32.603Z,39.72
2018-10-15T12:45:32.763Z,39.53
2018-10-15T12:46:32.917Z,39.36
2018-10-15T12:47:33.125Z,38.67
2018-10-15T12:48:33.228Z,37.43
2018-10-15T12:49:33.378Z,35.80
2018-10-15T12:50:33.528Z,35.04
2018-10-15T12:51:33.688Z,33.98
2018-10-15T12:52:33.838Z,33.33
2018-10-15T12:53:34.009Z,32.84
2018-10-15T12:54:34.158Z,32.94
2018-10-15T12:55:34.318Z,32.76
2018-10-15T12:56:34.464Z,32.19
2018-10-15T12:57:34.623Z,31.31
2018-10-15T12:58:34.776Z,31.32